Cebollita Spring, Valles Caldera, New Mexico Weather observations

Data are for 10 minute period ending at time listed.
 Day   Time   Solar   Ave.   Ave.  Ave.  Vector  Max.   Baro.   Total    
  of    of     Rad.   Air    Rel.  Wind   Wind   Wind  Press.  Precip.   
Year   Day            Temp.  Hum.  Speed  Dir.   Gust                    
2017   (MST)  Kw/m2    F      %     mph   deg.    mph    mb.     in.     
-------------------------------------------------------------------------
  52    7:30   0.03   33.9    76    9.9   338    17.3   99999.0    0.00 
  52    7:40   0.05   34.3    75    9.6   336    16.1   99999.0    0.00 
  52    7:50   0.10   35.0    74    9.1   333    15.5   99999.0    0.00 
  52    8:00   0.17   35.6    72    8.7   334    16.1   99999.0    0.00 
  52    8:10   0.19   36.2    71    8.6   336    14.9   99999.0    0.00 
  52    8:20   0.22   36.8    70    8.1   338    16.7   99999.0    0.00 
  52    8:30   0.25   37.7    68    8.6   335    17.3   99999.0    0.00 
  52    8:40   0.27   38.7    65    9.4   331    18.5   99999.0    0.00 
  52    8:50   0.30   39.5    63    8.5   336    16.4   99999.0    0.00 
  52    9:00   0.33   40.0    62    8.4   333    14.9   99999.0    0.00 
  52    9:10   0.35   40.7    61    7.8   321    14.9   99999.0    0.00 
  52    9:20   0.38   42.0    57    8.2   333    14.9   99999.0    0.00 
  52    9:30   0.40   43.4    54    7.6   326    14.9   99999.0    0.00 
  52    9:40   0.42   44.5    52    7.8   322    16.7   99999.0    0.00 
  52    9:50   0.44   45.5    49    7.5   332    14.9   99999.0    0.00 
  52   10:00   0.46   46.5    47    6.2   324    13.1   99999.0    0.00 
  52   10:10   0.48   47.2    45    6.9   333    15.5   99999.0    0.00 
  52   10:20   0.50   49.0    43    5.3   339    11.9   99999.0    0.00 
  52   10:30   0.51   49.7    41    7.3   358    13.1   99999.0    0.00 
  52   10:40   0.53   50.1    40    7.1   337    13.1   99999.0    0.00 
  52   10:50   0.54   51.8    36    6.5   320    13.1   99999.0    0.00 
  52   11:00   0.56   52.2    32    5.8   314    11.9   99999.0    0.00 
  52   11:10   0.57   52.9    30    5.8   296    11.3   99999.0    0.00 
  52   11:20   0.57   55.0    28    4.2   290     8.1   99999.0    0.00 
  52   11:30   0.58   54.6    27    4.8   289    10.2   99999.0    0.00 
  52   11:40   0.59   55.3    25    5.8   284    10.8   99999.0    0.00 
  52   11:50   0.60   55.2    22    8.8   268    16.1   99999.0    0.00 
  52   12:00   0.60   54.0    23    8.6   263    14.9   99999.0    0.00 
  52   12:10   0.60   54.3    24    8.1   282    13.7   99999.0    0.00 
  52   12:20   0.61   54.0    24    8.1   296    16.1   99999.0    0.00 
  52   12:30   0.61   54.5    24    6.5   304    13.7   99999.0    0.00 
  52   12:40   0.61   54.6    24    7.8   294    14.9   99999.0    0.00 
  52   12:50   0.60   54.3    24    8.5   284    17.9   99999.0    0.00 
  52   13:00   0.56   53.8    25    6.6   294    11.9   99999.0    0.00 
  52   13:10   0.59   54.3    24    7.1   305    14.3   99999.0    0.00 
  52   13:20   0.58   53.8    27    7.1   300    15.5   99999.0    0.00 
  52   13:30   0.57   54.4    24    7.6   335    17.9   99999.0    0.00 
  52   13:40   0.56   54.2    23    6.7   317    13.7   99999.0    0.00 
  52   13:50   0.55   54.4    24    7.3   312    15.5   99999.0    0.00 
  52   14:00   0.54   54.2    26    7.1   305    15.5   99999.0    0.00 
  52   14:10   0.52   53.7    28    7.7   289    17.3   99999.0    0.00 
  52   14:20   0.51   53.4    30    8.9   295    15.5   99999.0    0.01 
  52   14:30   0.49   53.4    29    8.2   285    15.5   99999.0    0.00 
  52   14:40   0.47   53.4    28    7.9   290    14.9   99999.0    0.00 
  52   14:50   0.45   53.2    28    8.9   318    17.3   99999.0    0.00 
  52   15:00   0.43   53.5    29    6.8   295    11.9   99999.0    0.00 
  52   15:10   0.41   54.2    27    6.9   275    13.7   99999.0    0.00 
  52   15:20   0.39   54.5    28    5.6   288    10.8   99999.0    0.01 
  52   15:30   0.36   54.1    28    6.4   290    12.5   99999.0    0.00 
  52   15:40   0.34   53.5    25    6.2   307    11.9   99999.0    0.00 
  52   15:50   0.32   53.5    25    6.0   300    13.1   99999.0    0.00 
  52   16:00   0.29   53.2    27    5.7   285    10.8   99999.0    0.00 
  52   16:10   0.26   52.1    27    7.0   273    11.9   99999.0    0.00 
  52   16:20   0.24   51.6    28    6.0   284    11.9   99999.0    0.00 
  52   16:30   0.20   51.1    30    7.0   270    13.7   99999.0    0.01 
  52   16:40   0.18   50.5    32    6.8   280    13.7   99999.0    0.00 
  52   16:50   0.14   49.6    32    6.4   275    11.9   99999.0    0.00 
  52   17:00   0.13   49.0    36    5.3   291     9.6   99999.0    0.00 
  52   17:10   0.11   48.5    38    5.7   292    11.9   99999.0    0.00 
  52   17:20   0.09   47.6    38    6.4   302    11.3   99999.0    0.00 
  52   17:30   0.06   46.5    39    4.0   312     9.0   99999.0    0.00 
  52   17:40   0.02   46.0    40    4.3   333    10.2   99999.0    0.00 
  52   17:50   0.01   44.5    41    2.6   318     7.2   99999.0    0.00 
  52   18:00   0.00   42.6    44    1.5   341     3.6   99999.0    0.00 
  52   18:10   0.00   40.2    49    2.0   352     4.2   99999.0    0.00 
  52   18:20   0.00   38.6    52    2.4   353     4.8   99999.0    0.00 
  52   18:30   0.00   37.2    56    2.0   356     4.2   99999.0    0.00 
  52   18:40   0.00   35.7    60    2.1     9     3.6   99999.0    0.00 
  52   18:50   0.00   34.7    64    2.9   350     6.6   99999.0    0.00 
  52   19:00   0.00   34.6    65    3.1   358     6.0   99999.0    0.00 
  52   19:10   0.00   34.7    64    3.7   353     6.6   99999.0    0.00 
  52   19:20   0.00   34.8    66    3.4   347     4.8   99999.0    0.00 
  52   19:30   0.00   34.9    65    2.7   344     5.4   99999.0    0.00 
  52   19:40   0.00   34.1    66    3.6   330     6.0   99999.0    0.00 
  52   19:50   0.00   34.2    67    3.6   323     7.5   99999.0    0.00 
  52   20:00   0.00   34.3    67    4.4   315     6.6   99999.0    0.00 
  52   20:10   0.00   35.1    64    4.6   317     7.8   99999.0    0.00 
  52   20:20   0.00   35.3    64    3.3   326     4.8   99999.0    0.00 
  52   20:30   0.00   34.4    66    4.3   322     7.8   99999.0    0.00 
  52   20:40   0.00   33.4    69    4.3   318     6.6   99999.0    0.00 
  52   20:50   0.00   34.8    66    4.5   304     8.4   99999.0    0.00 
  52   21:00   0.00   35.9    64    5.2   299     9.6   99999.0    0.00 
  52   21:10   0.00   37.8    60    5.1   289    11.9   99999.0    0.00 
  52   21:20   0.00   38.9    58    4.3   278     7.8   99999.0    0.00 
  52   21:30   0.00   38.8    59    4.8   288     9.6   99999.0    0.00 
  52   21:40   0.00   38.6    60    4.7   289     8.4   99999.0    0.00 
  52   21:50   0.00   38.5    61    4.6   291     7.8   99999.0    0.00 
  52   22:00   0.00   38.5    62    4.5   294     8.4   99999.0    0.00 
  52   22:10   0.00   38.3    62    4.0   291     6.6   99999.0    0.00 
  52   22:20   0.00   37.7    64    3.6   300     7.8   99999.0    0.00 
  52   22:30   0.00   36.8    66    3.8   322     7.2   99999.0    0.00 
  52   22:40   0.00   35.3    70    4.0   319     6.0   99999.0    0.00 
  52   22:50   0.00   33.1    75    4.5   312     6.6   99999.0    0.00 
  52   23:00   0.00   33.3    75    5.1   317     7.2   99999.0    0.00 
  52   23:10   0.00   34.8    71    5.1   323     8.4   99999.0    0.00 
  52   23:20   0.00   33.5    73    3.5   324     5.4   99999.0    0.00 
  52   23:30   0.00   31.7    77    3.1   336     4.8   99999.0    0.00 
  52   23:40   0.00   30.9    81    2.4   335     4.8   99999.0    0.00 
  52   23:50   0.00   30.1    82    1.0     1     3.6   99999.0    0.00 
  53    0:00   0.00   29.4    86    0.7    27     2.4   99999.0    0.00 
  53    0:10   0.00   29.8    86    1.3     7     2.4   99999.0    0.00 
  53    0:20   0.00   30.4    86    0.9    11     3.0   99999.0    0.00 
  53    0:30   0.00   31.3    83    0.2    11     2.4   99999.0    0.00 
  53    0:40   0.00   31.9    81    0.1    74     1.2   99999.0    0.00 
  53    0:50   0.00   32.3    81    0.0     0     0.0   99999.0    0.00 
  53    1:00   0.00   32.7    80    0.0     0     0.0   99999.0    0.00 
  53    1:10   0.00   33.0    80    0.0     0     0.0   99999.0    0.00 
  53    1:20   0.00   33.4    79    0.3   263     1.8   99999.0    0.00 
  53    1:30   0.00   33.9    78    0.6   279     2.4   99999.0    0.00 
  53    1:40   0.00   34.4    77    1.2   288     3.6   99999.0    0.00 
  53    1:50   0.00   34.8    76    2.5   289     6.0   99999.0    0.00 
  53    2:00   0.00   35.7    74    1.9   281     4.2   99999.0    0.00 
  53    2:10   0.00   34.6    76    0.4     8     2.4   99999.0    0.00 
  53    2:20   0.00   32.7    80    0.3    31     1.8   99999.0    0.00 
  53    2:30   0.00   31.1    82    1.4    80     2.4   99999.0    0.00 
  53    2:40   0.00   29.5    85    1.3    70     3.0   99999.0    0.00 
  53    2:50   0.00   28.3    89    1.3    63     2.4   99999.0    0.00 
  53    3:00   0.00   27.5    92    1.6    58     2.4   99999.0    0.00 
  53    3:10   0.00   26.7    96    1.3    55     2.4   99999.0    0.00 
  53    3:20   0.00   26.1    98    1.3    57     3.0   99999.0    0.00 
  53    3:30   0.00   26.0   100    1.6    57     3.6   99999.0    0.00 
  53    3:40   0.00   26.0   100    1.6    65     3.6   99999.0    0.00 
  53    3:50   0.00   26.0   100    1.2    65     2.4   99999.0    0.00 
  53    4:00   0.00   25.9   100    0.8    61     3.0   99999.0    0.00 
  53    4:10   0.00   25.9   100    1.1    59     2.7   99999.0    0.00 
  53    4:20   0.00   25.9   100    1.3    60     2.4   99999.0    0.00 
  53    4:30   0.00   25.9   100    0.6    64     3.0   99999.0    0.00 
  53    4:40   0.00   26.2   100    1.3    60     3.0   99999.0    0.00 
  53    4:50   0.00   26.6   100    0.6    50     2.4   99999.0    0.00 
  53    5:00   0.00   27.0   100    1.0    61     2.4   99999.0    0.00 
  53    5:10   0.00   27.0   100    1.3    65     3.6   99999.0    0.00 
  53    5:20   0.00   26.9   100    0.5    57     2.4   99999.0    0.00 
  53    5:30   0.00   27.0   100    0.7    68     1.8   99999.0    0.00 
  53    5:40   0.00   27.1   100    0.7     6     2.4   99999.0    0.00 
  53    5:50   0.00   27.1   100    0.0     0     0.0   99999.0    0.00 
  53    6:00   0.00   27.1   100    0.5    77     2.4   99999.0    0.00 
  53    6:10   0.00   27.3   100    0.1    75     1.2   99999.0    0.00 
  53    6:20   0.00   27.1   100    0.3    42     1.8   99999.0    0.00 
  53    6:30   0.00   26.9   100    0.1    84     1.8   99999.0    0.00 
  53    6:40   0.00   26.8   100    0.8    53     2.4   99999.0    0.00 
  53    6:50   0.00   26.9   100    0.3    81     2.4   99999.0    0.00 
  53    7:00   0.01   26.8   100    1.5    78     3.0   99999.0    0.00 
  53    7:10   0.01   27.1   100    1.2    78     2.4   99999.0    0.00 
  53    7:20   0.02   27.6   100    1.1    72     3.0   99999.0    0.00 

Return to Cebollita Spring, Valles Caldera graphs page.


Western Regional Climate Center,wrcc@dri.edu